PWSweather.com
Personal Weather Stations
Station Observations
ILOMBARD30
LodiIT 26900

LodiIT 26900

Lat: 45.2993, Lon: 9.5207

Elevation: 255

Station Type: Davis Vantege Pro2 Plus 24h

http://www.meteo-iw2gob.it

Latest ConditionsUpdated 3:35:01 PM GMT+01:01 Tuesday, Jul 23, 2019
Currently Today's Max Today's Min Today's Average
Temperature 93.1°F33.9°C 93.1°F33.9°C 74.3°F23.5°C 82.2°F27.9°C
Dew Point 70.5°F21.4°C 74.5°F23.6°C 69.3°F20.7°C 71.6°F22.0°C
Winds 2.3 mph E3.7 kmh E 5.8 mph -9.3 kmh - - 1.7 mph 2.7 kmh
Wind Gusts 4.6 mph7.4 kmh 8.1 mph13.0 kmh - -
Humidity 48% 88% 47% 72%
Pressure 29.98 in1015.2 mb 30.06 in1017.9 mb 29.98 in1015.2 mb -
Hour Temp Dew Point Humidity Winds Wind Gusts Pressure Precip Precip Rate Daily Precip Total
03:35 PM 93.1°F33.9°C 70.5°F21.4°C 48% 2.3 mph E3.7 kmh E 4.6 mph7.4 kmh 29.98 in1015.2 mb - 0.00 in0.0 mm 0.00 in0.0 mm
03:30 PM 93.0°F33.9°C 70.4°F21.3°C 48% 2.3 mph E3.7 kmh E 4.6 mph7.4 kmh 29.98 in1015.2 mb - 0.00 in0.0 mm 0.00 in0.0 mm
03:25 PM 92.5°F33.6°C 70.6°F21.4°C 49% 3.5 mph ENE5.6 kmh ENE 4.6 mph7.4 kmh 29.98 in1015.2 mb - 0.00 in0.0 mm 0.00 in0.0 mm
03:20 PM 92.8°F33.8°C 70.8°F21.6°C 49% 3.5 mph N5.6 kmh N 3.5 mph5.6 kmh 29.98 in1015.2 mb - 0.00 in0.0 mm 0.00 in0.0 mm
03:15 PM 92.6°F33.7°C 70.0°F21.1°C 48% 2.3 mph E3.7 kmh E 3.5 mph5.6 kmh 29.98 in1015.2 mb - 0.00 in0.0 mm 0.00 in0.0 mm
03:10 PM 92.8°F33.8°C 70.8°F21.6°C 49% 2.3 mph N3.7 kmh N 3.5 mph5.6 kmh 29.99 in1015.6 mb - 0.00 in0.0 mm 0.00 in0.0 mm
03:05 PM 92.5°F33.6°C 71.1°F21.7°C 50% 3.5 mph NE5.6 kmh NE 4.6 mph7.4 kmh 29.99 in1015.6 mb - 0.00 in0.0 mm 0.00 in0.0 mm
03:00 PM 92.1°F33.4°C 69.6°F20.9°C 48% 3.5 mph NE5.6 kmh NE 3.5 mph5.6 kmh 29.99 in1015.6 mb - 0.00 in0.0 mm 0.00 in0.0 mm
02:55 PM 92.2°F33.4°C 69.7°F20.9°C 48% 2.3 mph N3.7 kmh N 4.6 mph7.4 kmh 29.99 in1015.6 mb - 0.00 in0.0 mm 0.00 in0.0 mm
02:50 PM 92.3°F33.5°C 71.0°F21.7°C 50% 4.6 mph NE7.4 kmh NE 5.8 mph9.3 kmh 29.99 in1015.6 mb - 0.00 in0.0 mm 0.00 in0.0 mm
02:45 PM 92.6°F33.7°C 69.4°F20.8°C 47% 1.2 mph NNW1.9 kmh NNW 3.5 mph5.6 kmh 29.99 in1015.6 mb - 0.00 in0.0 mm 0.00 in0.0 mm
02:40 PM 92.8°F33.8°C 69.6°F20.9°C 47% 2.3 mph E3.7 kmh E 3.5 mph5.6 kmh 29.99 in1015.6 mb - 0.00 in0.0 mm 0.00 in0.0 mm
02:35 PM 93.0°F33.9°C 69.8°F21.0°C 47% 4.6 mph E7.4 kmh E 6.9 mph11.1 kmh 30.00 in1015.9 mb - 0.00 in0.0 mm 0.00 in0.0 mm
02:30 PM 92.0°F33.3°C 70.1°F21.2°C 49% Calm Calm 2.3 mph3.7 kmh 30.00 in1015.9 mb - 0.00 in0.0 mm 0.00 in0.0 mm
02:25 PM 91.8°F33.2°C 69.9°F21.1°C 49% 4.6 mph SE7.4 kmh SE 4.6 mph7.4 kmh 30.00 in1015.9 mb - 0.00 in0.0 mm 0.00 in0.0 mm
02:20 PM 91.8°F33.2°C 69.3°F20.7°C 48% 2.3 mph SE3.7 kmh SE 5.8 mph9.3 kmh 30.00 in1015.9 mb - 0.00 in0.0 mm 0.00 in0.0 mm
02:15 PM 91.5°F33.1°C 70.2°F21.2°C 50% 3.5 mph NE5.6 kmh NE 4.6 mph7.4 kmh 30.00 in1015.9 mb - 0.00 in0.0 mm 0.00 in0.0 mm
02:10 PM 91.6°F33.1°C 70.4°F21.3°C 50% 3.5 mph N5.6 kmh N 4.6 mph7.4 kmh 30.01 in1016.3 mb - 0.00 in0.0 mm 0.00 in0.0 mm
02:05 PM 92.1°F33.4°C 70.8°F21.6°C 50% 2.3 mph NE3.7 kmh NE 3.5 mph5.6 kmh 30.01 in1016.3 mb - 0.00 in0.0 mm 0.00 in0.0 mm
02:00 PM 91.8°F33.2°C 70.5°F21.4°C 50% 4.6 mph ENE7.4 kmh ENE 4.6 mph7.4 kmh 30.01 in1016.3 mb - 0.00 in0.0 mm 0.00 in0.0 mm
01:55 PM 91.7°F33.2°C 71.6°F22.0°C 52% 3.5 mph N5.6 kmh N 4.6 mph7.4 kmh 30.01 in1016.3 mb - 0.00 in0.0 mm 0.00 in0.0 mm
01:50 PM 92.3°F33.5°C 71.0°F21.7°C 50% 3.5 mph NE5.6 kmh NE 5.8 mph9.3 kmh 30.01 in1016.3 mb - 0.00 in0.0 mm 0.00 in0.0 mm
01:45 PM 92.3°F33.5°C 70.9°F21.6°C 50% 3.5 mph SE5.6 kmh SE 3.5 mph5.6 kmh 30.01 in1016.3 mb - 0.00 in0.0 mm 0.00 in0.0 mm
01:40 PM 92.2°F33.4°C 70.3°F21.3°C 49% 5.8 mph ENE9.3 kmh ENE 8.1 mph13.0 kmh 30.02 in1016.6 mb - 0.00 in0.0 mm 0.00 in0.0 mm
01:35 PM 92.2°F33.4°C 72.0°F22.2°C 52% 2.3 mph SE3.7 kmh SE 4.6 mph7.4 kmh 30.02 in1016.6 mb - 0.00 in0.0 mm 0.00 in0.0 mm
01:30 PM 92.1°F33.4°C 72.0°F22.2°C 52% 2.3 mph WSW3.7 kmh WSW 3.5 mph5.6 kmh 30.02 in1016.6 mb - 0.00 in0.0 mm 0.00 in0.0 mm
01:25 PM 91.7°F33.2°C 72.1°F22.3°C 53% 1.2 mph E1.9 kmh E 2.3 mph3.7 kmh 30.02 in1016.6 mb - 0.00 in0.0 mm 0.00 in0.0 mm
01:20 PM 91.7°F33.2°C 72.2°F22.3°C 53% 2.3 mph NE3.7 kmh NE 3.5 mph5.6 kmh 30.01 in1016.3 mb - 0.00 in0.0 mm 0.00 in0.0 mm
01:15 PM 91.9°F33.3°C 71.8°F22.1°C 52% 2.3 mph E3.7 kmh E 3.5 mph5.6 kmh 30.01 in1016.3 mb - 0.00 in0.0 mm 0.00 in0.0 mm
01:10 PM 91.7°F33.2°C 72.6°F22.6°C 54% 1.2 mph ENE1.9 kmh ENE 3.5 mph5.6 kmh 30.02 in1016.6 mb - 0.00 in0.0 mm 0.00 in0.0 mm
01:05 PM 91.6°F33.1°C 72.0°F22.2°C 53% 2.3 mph NNE3.7 kmh NNE 3.5 mph5.6 kmh 30.02 in1016.6 mb - 0.00 in0.0 mm 0.00 in0.0 mm
01:00 PM 90.6°F32.6°C 71.7°F22.1°C 54% 2.3 mph E3.7 kmh E 2.3 mph3.7 kmh 30.02 in1016.6 mb - 0.00 in0.0 mm 0.00 in0.0 mm
12:55 PM 90.3°F32.4°C 70.9°F21.6°C 53% 2.3 mph NNW3.7 kmh NNW 3.5 mph5.6 kmh 30.02 in1016.6 mb - 0.00 in0.0 mm 0.00 in0.0 mm
12:50 PM 90.9°F32.7°C 70.8°F21.6°C 52% 3.5 mph N5.6 kmh N 5.8 mph9.3 kmh 30.02 in1016.6 mb - 0.00 in0.0 mm 0.00 in0.0 mm
12:45 PM 90.5°F32.5°C 71.0°F21.7°C 53% 1.2 mph SSE1.9 kmh SSE 2.3 mph3.7 kmh 30.02 in1016.6 mb - 0.00 in0.0 mm 0.00 in0.0 mm
12:40 PM 90.5°F32.5°C 69.9°F21.1°C 51% 2.3 mph ESE3.7 kmh ESE 3.5 mph5.6 kmh 30.02 in1016.6 mb - 0.00 in0.0 mm 0.00 in0.0 mm
12:35 PM 90.4°F32.4°C 69.8°F21.0°C 51% 4.6 mph ESE7.4 kmh ESE 4.6 mph7.4 kmh 30.02 in1016.6 mb - 0.00 in0.0 mm 0.00 in0.0 mm
12:30 PM 89.8°F32.1°C 70.4°F21.3°C 53% 5.8 mph E9.3 kmh E 6.9 mph11.1 kmh 30.02 in1016.6 mb - 0.00 in0.0 mm 0.00 in0.0 mm
12:25 PM 89.8°F32.1°C 71.5°F21.9°C 55% 2.3 mph SE3.7 kmh SE 4.6 mph7.4 kmh 30.02 in1016.6 mb - 0.00 in0.0 mm 0.00 in0.0 mm
12:20 PM 89.8°F32.1°C 69.8°F21.0°C 52% 2.3 mph SE3.7 kmh SE 3.5 mph5.6 kmh 30.03 in1016.9 mb - 0.00 in0.0 mm 0.00 in0.0 mm
12:15 PM 89.8°F32.1°C 70.4°F21.3°C 53% 4.6 mph SSE7.4 kmh SSE 5.8 mph9.3 kmh 30.03 in1016.9 mb - 0.00 in0.0 mm 0.00 in0.0 mm
12:10 PM 90.1°F32.3°C 70.7°F21.5°C 53% 2.3 mph E3.7 kmh E 3.5 mph5.6 kmh 30.03 in1016.9 mb - 0.00 in0.0 mm 0.00 in0.0 mm
12:05 PM 90.4°F32.4°C 69.8°F21.0°C 51% 2.3 mph E3.7 kmh E 6.9 mph11.1 kmh 30.03 in1016.9 mb - 0.00 in0.0 mm 0.00 in0.0 mm
12:00 PM 90.2°F32.3°C 71.8°F22.1°C 55% 2.3 mph S3.7 kmh S 2.3 mph3.7 kmh 30.04 in1017.3 mb - 0.00 in0.0 mm 0.00 in0.0 mm
11:55 AM 89.6°F32.0°C 71.2°F21.8°C 55% 3.5 mph ESE5.6 kmh ESE 5.8 mph9.3 kmh 30.04 in1017.3 mb - 0.00 in0.0 mm 0.00 in0.0 mm
11:50 AM 89.2°F31.8°C 72.0°F22.2°C 57% 3.5 mph ESE5.6 kmh ESE 3.5 mph5.6 kmh 30.04 in1017.3 mb - 0.00 in0.0 mm 0.00 in0.0 mm
11:45 AM 89.4°F31.9°C 73.2°F22.9°C 59% 4.6 mph E7.4 kmh E 6.9 mph11.1 kmh 30.04 in1017.3 mb - 0.00 in0.0 mm 0.00 in0.0 mm
11:40 AM 89.5°F31.9°C 74.2°F23.4°C 61% 2.3 mph ESE3.7 kmh ESE 3.5 mph5.6 kmh 30.04 in1017.3 mb - 0.00 in0.0 mm 0.00 in0.0 mm
11:35 AM 89.2°F31.8°C 74.0°F23.3°C 61% 3.5 mph NE5.6 kmh NE 4.6 mph7.4 kmh 30.04 in1017.3 mb - 0.00 in0.0 mm 0.00 in0.0 mm
11:30 AM 88.9°F31.6°C 73.7°F23.2°C 61% Calm Calm 1.2 mph1.9 kmh 30.04 in1017.3 mb - 0.00 in0.0 mm 0.00 in0.0 mm
11:25 AM 88.1°F31.2°C 73.9°F23.3°C 63% 3.5 mph E5.6 kmh E 6.9 mph11.1 kmh 30.04 in1017.3 mb - 0.00 in0.0 mm 0.00 in0.0 mm
11:20 AM 87.7°F30.9°C 74.0°F23.3°C 64% 3.5 mph NNE5.6 kmh NNE 3.5 mph5.6 kmh 30.04 in1017.3 mb - 0.00 in0.0 mm 0.00 in0.0 mm
11:15 AM 87.3°F30.7°C 73.2°F22.9°C 63% 2.3 mph NNW3.7 kmh NNW 3.5 mph5.6 kmh 30.04 in1017.3 mb - 0.00 in0.0 mm 0.00 in0.0 mm
11:10 AM 87.8°F31.0°C 73.6°F23.1°C 63% 2.3 mph NW3.7 kmh NW 4.6 mph7.4 kmh 30.04 in1017.3 mb - 0.00 in0.0 mm 0.00 in0.0 mm
11:05 AM 88.0°F31.1°C 73.3°F22.9°C 62% 2.3 mph NE3.7 kmh NE 3.5 mph5.6 kmh 30.05 in1017.6 mb - 0.00 in0.0 mm 0.00 in0.0 mm
11:00 AM 87.7°F30.9°C 73.1°F22.8°C 62% 3.5 mph ENE5.6 kmh ENE 3.5 mph5.6 kmh 30.05 in1017.6 mb - 0.00 in0.0 mm 0.00 in0.0 mm
10:55 AM 87.0°F30.6°C 72.9°F22.7°C 63% 1.2 mph NE1.9 kmh NE 3.5 mph5.6 kmh 30.05 in1017.6 mb - 0.00 in0.0 mm 0.00 in0.0 mm
10:50 AM 86.8°F30.4°C 73.2°F22.9°C 64% 3.5 mph N5.6 kmh N 4.6 mph7.4 kmh 30.05 in1017.6 mb - 0.00 in0.0 mm 0.00 in0.0 mm
10:45 AM 86.9°F30.5°C 73.3°F22.9°C 64% 3.5 mph N5.6 kmh N 4.6 mph7.4 kmh 30.04 in1017.3 mb - 0.00 in0.0 mm 0.00 in0.0 mm
10:40 AM 86.9°F30.5°C 74.2°F23.4°C 66% 3.5 mph NNE5.6 kmh NNE 3.5 mph5.6 kmh 30.04 in1017.3 mb - 0.00 in0.0 mm 0.00 in0.0 mm
10:35 AM 87.1°F30.6°C 73.4°F23.0°C 64% 3.5 mph SE5.6 kmh SE 3.5 mph5.6 kmh 30.05 in1017.6 mb - 0.00 in0.0 mm 0.00 in0.0 mm
10:30 AM 86.7°F30.4°C 74.5°F23.6°C 67% 2.3 mph E3.7 kmh E 8.1 mph13.0 kmh 30.05 in1017.6 mb - 0.00 in0.0 mm 0.00 in0.0 mm
10:25 AM 86.2°F30.1°C 73.0°F22.8°C 65% 3.5 mph SE5.6 kmh SE 5.8 mph9.3 kmh 30.05 in1017.6 mb - 0.00 in0.0 mm 0.00 in0.0 mm
10:20 AM 86.0°F30.0°C 73.3°F22.9°C 66% 3.5 mph ESE5.6 kmh ESE 6.9 mph11.1 kmh 30.05 in1017.6 mb - 0.00 in0.0 mm 0.00 in0.0 mm
10:15 AM 86.2°F30.1°C 73.9°F23.3°C 67% 3.5 mph SE5.6 kmh SE 4.6 mph7.4 kmh 30.05 in1017.6 mb - 0.00 in0.0 mm 0.00 in0.0 mm
10:10 AM 85.7°F29.8°C 73.1°F22.8°C 66% 2.3 mph SE3.7 kmh SE 2.3 mph3.7 kmh 30.05 in1017.6 mb - 0.00 in0.0 mm 0.00 in0.0 mm
10:05 AM 85.9°F29.9°C 72.7°F22.6°C 65% 3.5 mph SE5.6 kmh SE 4.6 mph7.4 kmh 30.05 in1017.6 mb - 0.00 in0.0 mm 0.00 in0.0 mm
10:00 AM 85.8°F29.9°C 72.7°F22.6°C 65% 4.6 mph E7.4 kmh E 6.9 mph11.1 kmh 30.05 in1017.6 mb - 0.00 in0.0 mm 0.00 in0.0 mm
09:55 AM 85.2°F29.6°C 73.0°F22.8°C 67% 3.5 mph E5.6 kmh E 8.1 mph13.0 kmh 30.05 in1017.6 mb - 0.00 in0.0 mm 0.00 in0.0 mm
09:50 AM 84.8°F29.3°C 73.0°F22.8°C 68% 3.5 mph E5.6 kmh E 5.8 mph9.3 kmh 30.05 in1017.6 mb - 0.00 in0.0 mm 0.00 in0.0 mm
09:45 AM 84.7°F29.3°C 72.6°F22.6°C 67% 2.3 mph ESE3.7 kmh ESE 3.5 mph5.6 kmh 30.05 in1017.6 mb - 0.00 in0.0 mm 0.00 in0.0 mm
09:40 AM 84.9°F29.4°C 73.2°F22.9°C 68% 4.6 mph E7.4 kmh E 5.8 mph9.3 kmh 30.05 in1017.6 mb - 0.00 in0.0 mm 0.00 in0.0 mm
09:35 AM 84.2°F29.0°C 72.9°F22.7°C 69% 2.3 mph SE3.7 kmh SE 3.5 mph5.6 kmh 30.05 in1017.6 mb - 0.00 in0.0 mm 0.00 in0.0 mm
09:30 AM 84.4°F29.1°C 73.5°F23.1°C 70% 3.5 mph SE5.6 kmh SE 4.6 mph7.4 kmh 30.05 in1017.6 mb - 0.00 in0.0 mm 0.00 in0.0 mm
09:25 AM 84.6°F29.2°C 73.3°F22.9°C 69% 1.2 mph SE1.9 kmh SE 3.5 mph5.6 kmh 30.05 in1017.6 mb - 0.00 in0.0 mm 0.00 in0.0 mm
09:20 AM 84.1°F28.9°C 73.7°F23.2°C 71% 1.2 mph ENE1.9 kmh ENE 2.3 mph3.7 kmh 30.06 in1017.9 mb - 0.00 in0.0 mm 0.00 in0.0 mm
09:15 AM 83.4°F28.6°C 72.5°F22.5°C 70% 1.2 mph SE1.9 kmh SE 2.3 mph3.7 kmh 30.05 in1017.6 mb - 0.00 in0.0 mm 0.00 in0.0 mm
09:10 AM 83.5°F28.6°C 73.1°F22.8°C 71% 3.5 mph SE5.6 kmh SE 3.5 mph5.6 kmh 30.06 in1017.9 mb - 0.00 in0.0 mm 0.00 in0.0 mm
09:05 AM 83.3°F28.5°C 72.5°F22.5°C 70% 2.3 mph E3.7 kmh E 4.6 mph7.4 kmh 30.06 in1017.9 mb - 0.00 in0.0 mm 0.00 in0.0 mm
09:00 AM 83.1°F28.4°C 72.7°F22.6°C 71% 4.6 mph E7.4 kmh E 5.8 mph9.3 kmh 30.06 in1017.9 mb - 0.00 in0.0 mm 0.00 in0.0 mm
08:55 AM 82.6°F28.1°C 73.1°F22.8°C 73% 2.3 mph E3.7 kmh E 3.5 mph5.6 kmh 30.06 in1017.9 mb - 0.00 in0.0 mm 0.00 in0.0 mm
08:50 AM 82.3°F27.9°C 72.8°F22.7°C 73% 2.3 mph ESE3.7 kmh ESE 3.5 mph5.6 kmh 30.06 in1017.9 mb - 0.00 in0.0 mm 0.00 in0.0 mm
08:45 AM 82.2°F27.9°C 73.0°F22.8°C 74% 2.3 mph SE3.7 kmh SE 3.5 mph5.6 kmh 30.06 in1017.9 mb - 0.00 in0.0 mm 0.00 in0.0 mm
08:40 AM 81.9°F27.7°C 72.8°F22.7°C 74% 2.3 mph ESE3.7 kmh ESE 3.5 mph5.6 kmh 30.06 in1017.9 mb - 0.00 in0.0 mm 0.00 in0.0 mm
08:35 AM 82.1°F27.8°C 73.0°F22.8°C 74% 1.2 mph ESE1.9 kmh ESE 4.6 mph7.4 kmh 30.05 in1017.6 mb - 0.00 in0.0 mm 0.00 in0.0 mm
08:30 AM 81.6°F27.6°C 72.9°F22.7°C 75% 1.2 mph E1.9 kmh E 2.3 mph3.7 kmh 30.05 in1017.6 mb - 0.00 in0.0 mm 0.00 in0.0 mm
08:25 AM 81.0°F27.2°C 72.7°F22.6°C 76% 1.2 mph ESE1.9 kmh ESE 1.2 mph1.9 kmh 30.06 in1017.9 mb - 0.00 in0.0 mm 0.00 in0.0 mm
08:20 AM 80.9°F27.2°C 72.6°F22.6°C 76% 2.3 mph E3.7 kmh E 3.5 mph5.6 kmh 30.06 in1017.9 mb - 0.00 in0.0 mm 0.00 in0.0 mm
08:15 AM 80.5°F26.9°C 72.6°F22.6°C 77% 2.3 mph ESE3.7 kmh ESE 3.5 mph5.6 kmh 30.06 in1017.9 mb - 0.00 in0.0 mm 0.00 in0.0 mm
08:10 AM 80.4°F26.9°C 72.6°F22.6°C 77% 2.3 mph SE3.7 kmh SE 3.5 mph5.6 kmh 30.06 in1017.9 mb - 0.00 in0.0 mm 0.00 in0.0 mm
08:05 AM 80.3°F26.8°C 72.8°F22.7°C 78% 1.2 mph E1.9 kmh E 3.5 mph5.6 kmh 30.06 in1017.9 mb - 0.00 in0.0 mm 0.00 in0.0 mm
08:00 AM 79.9°F26.6°C 72.4°F22.4°C 78% 2.3 mph E3.7 kmh E 3.5 mph5.6 kmh 30.06 in1017.9 mb - 0.00 in0.0 mm 0.00 in0.0 mm
07:55 AM 79.6°F26.4°C 72.1°F22.3°C 78% 2.3 mph E3.7 kmh E 3.5 mph5.6 kmh 30.06 in1017.9 mb - 0.00 in0.0 mm 0.00 in0.0 mm
07:50 AM 79.2°F26.2°C 71.7°F22.1°C 78% 2.3 mph SE3.7 kmh SE 3.5 mph5.6 kmh 30.06 in1017.9 mb - 0.00 in0.0 mm 0.00 in0.0 mm
07:45 AM 79.0°F26.1°C 71.6°F22.0°C 78% 2.3 mph SE3.7 kmh SE 3.5 mph5.6 kmh 30.06 in1017.9 mb - 0.00 in0.0 mm 0.00 in0.0 mm
07:40 AM 78.9°F26.1°C 71.5°F21.9°C 78% 1.2 mph SE1.9 kmh SE 3.5 mph5.6 kmh 30.06 in1017.9 mb - 0.00 in0.0 mm 0.00 in0.0 mm
07:35 AM 78.5°F25.8°C 71.4°F21.9°C 79% 2.3 mph SE3.7 kmh SE 2.3 mph3.7 kmh 30.06 in1017.9 mb - 0.00 in0.0 mm 0.00 in0.0 mm
07:30 AM 78.5°F25.8°C 71.4°F21.9°C 79% 1.2 mph SE1.9 kmh SE 3.5 mph5.6 kmh 30.06 in1017.9 mb - 0.00 in0.0 mm 0.00 in0.0 mm
07:25 AM 78.4°F25.8°C 71.4°F21.9°C 79% 2.3 mph SE3.7 kmh SE 3.5 mph5.6 kmh 30.06 in1017.9 mb - 0.00 in0.0 mm 0.00 in0.0 mm
07:20 AM 78.0°F25.6°C 71.4°F21.9°C 80% 1.2 mph SE1.9 kmh SE 3.5 mph5.6 kmh 30.06 in1017.9 mb - 0.00 in0.0 mm 0.00 in0.0 mm
07:15 AM 77.7°F25.4°C 71.7°F22.1°C 82% 1.2 mph SE1.9 kmh SE 2.3 mph3.7 kmh 30.06 in1017.9 mb - 0.00 in0.0 mm 0.00 in0.0 mm
07:10 AM 77.2°F25.1°C 71.6°F22.0°C 83% Calm Calm -- 30.06 in1017.9 mb - 0.00 in0.0 mm 0.00 in0.0 mm
07:05 AM 76.9°F24.9°C 71.7°F22.1°C 84% 1.2 mph SE1.9 kmh SE 2.3 mph3.7 kmh 30.06 in1017.9 mb - 0.00 in0.0 mm 0.00 in0.0 mm
07:00 AM 76.7°F24.8°C 71.5°F21.9°C 84% 1.2 mph SE1.9 kmh SE 2.3 mph3.7 kmh 30.06 in1017.9 mb - 0.00 in0.0 mm 0.00 in0.0 mm
06:55 AM 76.7°F24.8°C 71.8°F22.1°C 85% 2.3 mph SE3.7 kmh SE 3.5 mph5.6 kmh 30.06 in1017.9 mb - 0.00 in0.0 mm 0.00 in0.0 mm
06:50 AM 76.6°F24.8°C 71.7°F22.1°C 85% 1.2 mph SE1.9 kmh SE 2.3 mph3.7 kmh 30.06 in1017.9 mb - 0.00 in0.0 mm 0.00 in0.0 mm
06:45 AM 76.5°F24.7°C 71.3°F21.8°C 84% 2.3 mph SE3.7 kmh SE 2.3 mph3.7 kmh 30.06 in1017.9 mb - 0.00 in0.0 mm 0.00 in0.0 mm
06:40 AM 76.4°F24.7°C 71.6°F22.0°C 85% 2.3 mph SE3.7 kmh SE 3.5 mph5.6 kmh 30.06 in1017.9 mb - 0.00 in0.0 mm 0.00 in0.0 mm
06:35 AM 76.1°F24.5°C 71.3°F21.8°C 85% 2.3 mph SE3.7 kmh SE 3.5 mph5.6 kmh 30.05 in1017.6 mb - 0.00 in0.0 mm 0.00 in0.0 mm
06:30 AM 75.7°F24.3°C 71.2°F21.8°C 86% Calm Calm -- 30.05 in1017.6 mb - 0.00 in0.0 mm 0.00 in0.0 mm
06:25 AM 75.4°F24.1°C 71.2°F21.8°C 87% Calm Calm -- 30.05 in1017.6 mb - 0.00 in0.0 mm 0.00 in0.0 mm
06:20 AM 75.1°F23.9°C 71.0°F21.7°C 87% Calm Calm -- 30.05 in1017.6 mb - 0.00 in0.0 mm 0.00 in0.0 mm
06:15 AM 74.9°F23.8°C 71.1°F21.7°C 88% Calm Calm -- 30.05 in1017.6 mb - 0.00 in0.0 mm 0.00 in0.0 mm
06:10 AM 74.7°F23.7°C 70.9°F21.6°C 88% Calm Calm -- 30.05 in1017.6 mb - 0.00 in0.0 mm 0.00 in0.0 mm
06:05 AM 74.6°F23.7°C 70.8°F21.6°C 88% Calm Calm -- 30.05 in1017.6 mb - 0.00 in0.0 mm 0.00 in0.0 mm
06:00 AM 74.5°F23.6°C 70.7°F21.5°C 88% Calm Calm -- 30.05 in1017.6 mb - 0.00 in0.0 mm 0.00 in0.0 mm
05:55 AM 74.5°F23.6°C 70.7°F21.5°C 88% Calm Calm -- 30.05 in1017.6 mb - 0.00 in0.0 mm 0.00 in0.0 mm
05:50 AM 74.4°F23.6°C 70.6°F21.4°C 88% Calm Calm -- 30.05 in1017.6 mb - 0.00 in0.0 mm 0.00 in0.0 mm
05:45 AM 74.4°F23.6°C 70.6°F21.4°C 88% Calm Calm -- 30.05 in1017.6 mb - 0.00 in0.0 mm 0.00 in0.0 mm
05:40 AM 74.3°F23.5°C 70.5°F21.4°C 88% 2.3 mph SE3.7 kmh SE 2.3 mph3.7 kmh 30.05 in1017.6 mb - 0.00 in0.0 mm 0.00 in0.0 mm
05:35 AM 74.3°F23.5°C 70.5°F21.4°C 88% Calm Calm 1.2 mph1.9 kmh 30.05 in1017.6 mb - 0.00 in0.0 mm 0.00 in0.0 mm
05:30 AM 74.3°F23.5°C 70.5°F21.4°C 88% 1.2 mph SE1.9 kmh SE 2.3 mph3.7 kmh 30.05 in1017.6 mb - 0.00 in0.0 mm 0.00 in0.0 mm
05:25 AM 74.3°F23.5°C 70.5°F21.4°C 88% 1.2 mph SE1.9 kmh SE 1.2 mph1.9 kmh 30.05 in1017.6 mb - 0.00 in0.0 mm 0.00 in0.0 mm
05:20 AM 74.4°F23.6°C 70.6°F21.4°C 88% 1.2 mph SE1.9 kmh SE 2.3 mph3.7 kmh 30.05 in1017.6 mb - 0.00 in0.0 mm 0.00 in0.0 mm
05:15 AM 74.4°F23.6°C 70.6°F21.4°C 88% 1.2 mph SE1.9 kmh SE 2.3 mph3.7 kmh 30.05 in1017.6 mb - 0.00 in0.0 mm 0.00 in0.0 mm
05:10 AM 74.4°F23.6°C 70.6°F21.4°C 88% 1.2 mph SE1.9 kmh SE 2.3 mph3.7 kmh 30.05 in1017.6 mb - 0.00 in0.0 mm 0.00 in0.0 mm
05:05 AM 74.5°F23.6°C 70.4°F21.3°C 87% 1.2 mph SE1.9 kmh SE 2.3 mph3.7 kmh 30.05 in1017.6 mb - 0.00 in0.0 mm 0.00 in0.0 mm
05:00 AM 74.5°F23.6°C 70.4°F21.3°C 87% 2.3 mph SE3.7 kmh SE 2.3 mph3.7 kmh 30.05 in1017.6 mb - 0.00 in0.0 mm 0.00 in0.0 mm
04:55 AM 74.6°F23.7°C 70.5°F21.4°C 87% 1.2 mph SE1.9 kmh SE 2.3 mph3.7 kmh 30.05 in1017.6 mb - 0.00 in0.0 mm 0.00 in0.0 mm
04:50 AM 74.7°F23.7°C 70.5°F21.4°C 87% 1.2 mph SE1.9 kmh SE 2.3 mph3.7 kmh 30.05 in1017.6 mb - 0.00 in0.0 mm 0.00 in0.0 mm
04:45 AM 74.7°F23.7°C 70.6°F21.4°C 87% 1.2 mph SE1.9 kmh SE 2.3 mph3.7 kmh 30.05 in1017.6 mb - 0.00 in0.0 mm 0.00 in0.0 mm
04:40 AM 74.7°F23.7°C 70.6°F21.4°C 87% 1.2 mph SE1.9 kmh SE 1.2 mph1.9 kmh 30.05 in1017.6 mb - 0.00 in0.0 mm 0.00 in0.0 mm
04:35 AM 74.8°F23.8°C 70.7°F21.5°C 87% Calm Calm 1.2 mph1.9 kmh 30.05 in1017.6 mb - 0.00 in0.0 mm 0.00 in0.0 mm
04:30 AM 74.8°F23.8°C 70.7°F21.5°C 87% 1.2 mph SE1.9 kmh SE 2.3 mph3.7 kmh 30.05 in1017.6 mb - 0.00 in0.0 mm 0.00 in0.0 mm
04:25 AM 74.9°F23.8°C 70.8°F21.6°C 87% Calm Calm 2.3 mph3.7 kmh 30.05 in1017.6 mb - 0.00 in0.0 mm 0.00 in0.0 mm
04:20 AM 75.0°F23.9°C 70.9°F21.6°C 87% Calm Calm 1.2 mph1.9 kmh 30.05 in1017.6 mb - 0.00 in0.0 mm 0.00 in0.0 mm
04:15 AM 75.1°F23.9°C 70.6°F21.4°C 86% 1.2 mph SE1.9 kmh SE 2.3 mph3.7 kmh 30.05 in1017.6 mb - 0.00 in0.0 mm 0.00 in0.0 mm
04:10 AM 75.1°F23.9°C 70.6°F21.4°C 86% Calm Calm 1.2 mph1.9 kmh 30.05 in1017.6 mb - 0.00 in0.0 mm 0.00 in0.0 mm
04:05 AM 75.1°F23.9°C 70.6°F21.4°C 86% 2.3 mph SE3.7 kmh SE 3.5 mph5.6 kmh 30.04 in1017.3 mb - 0.00 in0.0 mm 0.00 in0.0 mm
04:00 AM 75.2°F24.0°C 70.7°F21.5°C 86% 1.2 mph SE1.9 kmh SE 2.3 mph3.7 kmh 30.05 in1017.6 mb - 0.00 in0.0 mm 0.00 in0.0 mm
03:55 AM 75.2°F24.0°C 70.7°F21.5°C 86% 1.2 mph SE1.9 kmh SE 3.5 mph5.6 kmh 30.05 in1017.6 mb - 0.00 in0.0 mm 0.00 in0.0 mm
03:50 AM 75.3°F24.1°C 70.8°F21.6°C 86% 1.2 mph SE1.9 kmh SE 1.2 mph1.9 kmh 30.04 in1017.3 mb - 0.00 in0.0 mm 0.00 in0.0 mm
03:45 AM 75.3°F24.1°C 70.8°F21.6°C 86% 1.2 mph SE1.9 kmh SE 2.3 mph3.7 kmh 30.04 in1017.3 mb - 0.00 in0.0 mm 0.00 in0.0 mm
03:40 AM 75.4°F24.1°C 70.9°F21.6°C 86% 1.2 mph SE1.9 kmh SE 2.3 mph3.7 kmh 30.04 in1017.3 mb - 0.00 in0.0 mm 0.00 in0.0 mm
03:35 AM 75.4°F24.1°C 71.0°F21.7°C 86% 1.2 mph SE1.9 kmh SE 2.3 mph3.7 kmh 30.04 in1017.3 mb - 0.00 in0.0 mm 0.00 in0.0 mm
03:30 AM 75.5°F24.2°C 71.0°F21.7°C 86% Calm Calm -- 30.04 in1017.3 mb - 0.00 in0.0 mm 0.00 in0.0 mm
03:25 AM 75.6°F24.2°C 70.8°F21.6°C 85% Calm Calm -- 30.05 in1017.6 mb - 0.00 in0.0 mm 0.00 in0.0 mm
03:20 AM 75.6°F24.2°C 70.8°F21.6°C 85% Calm Calm -- 30.05 in1017.6 mb - 0.00 in0.0 mm 0.00 in0.0 mm
03:15 AM 75.7°F24.3°C 70.9°F21.6°C 85% Calm Calm -- 30.05 in1017.6 mb - 0.00 in0.0 mm 0.00 in0.0 mm
03:10 AM 75.7°F24.3°C 70.9°F21.6°C 85% 1.2 mph SE1.9 kmh SE 2.3 mph3.7 kmh 30.05 in1017.6 mb - 0.00 in0.0 mm 0.00 in0.0 mm
03:05 AM 75.7°F24.3°C 70.9°F21.6°C 85% Calm Calm -- 30.05 in1017.6 mb - 0.00 in0.0 mm 0.00 in0.0 mm
03:00 AM 75.7°F24.3°C 70.9°F21.6°C 85% Calm Calm -- 30.05 in1017.6 mb - 0.00 in0.0 mm 0.00 in0.0 mm
02:55 AM 75.7°F24.3°C 70.9°F21.6°C 85% Calm Calm 1.2 mph1.9 kmh 30.05 in1017.6 mb - 0.00 in0.0 mm 0.00 in0.0 mm
02:50 AM 75.7°F24.3°C 70.9°F21.6°C 85% Calm Calm -- 30.05 in1017.6 mb - 0.00 in0.0 mm 0.00 in0.0 mm
02:45 AM 75.8°F24.3°C 71.0°F21.7°C 85% 1.2 mph SE1.9 kmh SE 1.2 mph1.9 kmh 30.05 in1017.6 mb - 0.00 in0.0 mm 0.00 in0.0 mm
02:40 AM 75.9°F24.4°C 71.0°F21.7°C 85% 1.2 mph SE1.9 kmh SE 2.3 mph3.7 kmh 30.05 in1017.6 mb - 0.00 in0.0 mm 0.00 in0.0 mm
02:35 AM 75.9°F24.4°C 71.1°F21.7°C 85% 1.2 mph SE1.9 kmh SE 2.3 mph3.7 kmh 30.05 in1017.6 mb - 0.00 in0.0 mm 0.00 in0.0 mm
02:30 AM 76.0°F24.4°C 71.2°F21.8°C 85% 1.2 mph SE1.9 kmh SE 2.3 mph3.7 kmh 30.05 in1017.6 mb - 0.00 in0.0 mm 0.00 in0.0 mm
02:25 AM 76.1°F24.5°C 71.3°F21.8°C 85% 1.2 mph SE1.9 kmh SE 2.3 mph3.7 kmh 30.05 in1017.6 mb - 0.00 in0.0 mm 0.00 in0.0 mm
02:20 AM 76.2°F24.6°C 71.0°F21.7°C 84% Calm Calm -- 30.05 in1017.6 mb - 0.00 in0.0 mm 0.00 in0.0 mm
02:15 AM 76.2°F24.6°C 71.0°F21.7°C 84% Calm Calm -- 30.05 in1017.6 mb - 0.00 in0.0 mm 0.00 in0.0 mm
02:10 AM 76.3°F24.6°C 71.1°F21.7°C 84% Calm Calm -- 30.05 in1017.6 mb - 0.00 in0.0 mm 0.00 in0.0 mm
02:05 AM 76.4°F24.7°C 71.2°F21.8°C 84% Calm Calm -- 30.05 in1017.6 mb - 0.00 in0.0 mm 0.00 in0.0 mm
02:00 AM 76.4°F24.7°C 71.2°F21.8°C 84% Calm Calm -- 30.05 in1017.6 mb - 0.00 in0.0 mm 0.00 in0.0 mm
01:55 AM 76.5°F24.7°C 71.3°F21.8°C 84% Calm Calm -- 30.05 in1017.6 mb - 0.00 in0.0 mm 0.00 in0.0 mm
01:50 AM 76.6°F24.8°C 71.4°F21.9°C 84% Calm Calm -- 30.05 in1017.6 mb - 0.00 in0.0 mm 0.00 in0.0 mm
01:45 AM 76.7°F24.8°C 71.5°F21.9°C 84% Calm Calm -- 30.05 in1017.6 mb - 0.00 in0.0 mm 0.00 in0.0 mm
01:40 AM 76.8°F24.9°C 71.6°F22.0°C 84% Calm Calm -- 30.05 in1017.6 mb - 0.00 in0.0 mm 0.00 in0.0 mm
01:35 AM 76.8°F24.9°C 71.6°F22.0°C 84% Calm Calm -- 30.05 in1017.6 mb - 0.00 in0.0 mm 0.00 in0.0 mm
01:30 AM 76.9°F24.9°C 71.4°F21.9°C 83% 1.2 mph SE1.9 kmh SE 1.2 mph1.9 kmh 30.05 in1017.6 mb - 0.00 in0.0 mm 0.00 in0.0 mm
01:25 AM 77.1°F25.1°C 71.5°F21.9°C 83% 2.3 mph SE3.7 kmh SE 3.5 mph5.6 kmh 30.06 in1017.9 mb - 0.00 in0.0 mm 0.00 in0.0 mm
01:20 AM 77.4°F25.2°C 71.8°F22.1°C 83% Calm Calm -- 30.05 in1017.6 mb - 0.00 in0.0 mm 0.00 in0.0 mm
01:15 AM 77.5°F25.3°C 71.9°F22.2°C 83% Calm Calm -- 30.06 in1017.9 mb - 0.00 in0.0 mm 0.00 in0.0 mm
01:10 AM 77.7°F25.4°C 71.8°F22.1°C 82% Calm Calm -- 30.06 in1017.9 mb - 0.00 in0.0 mm 0.00 in0.0 mm
01:05 AM 77.9°F25.5°C 72.0°F22.2°C 82% Calm Calm -- 30.06 in1017.9 mb - 0.00 in0.0 mm 0.00 in0.0 mm
01:00 AM 78.0°F25.6°C 72.1°F22.3°C 82% Calm Calm -- 30.06 in1017.9 mb - 0.00 in0.0 mm 0.00 in0.0 mm
12:55 AM 78.2°F25.7°C 72.3°F22.4°C 82% Calm Calm -- 30.05 in1017.6 mb - 0.00 in0.0 mm 0.00 in0.0 mm
12:50 AM 78.4°F25.8°C 72.1°F22.3°C 81% Calm Calm -- 30.06 in1017.9 mb - 0.00 in0.0 mm 0.00 in0.0 mm
12:45 AM 78.6°F25.9°C 72.2°F22.3°C 81% Calm Calm -- 30.06 in1017.9 mb - 0.00 in0.0 mm 0.00 in0.0 mm
12:40 AM 78.7°F25.9°C 72.0°F22.2°C 80% Calm Calm -- 30.06 in1017.9 mb - 0.00 in0.0 mm 0.00 in0.0 mm
12:35 AM 78.8°F26.0°C 72.1°F22.3°C 80% Calm Calm -- 30.06 in1017.9 mb - 0.00 in0.0 mm 0.00 in0.0 mm
12:30 AM 79.0°F26.1°C 72.3°F22.4°C 80% Calm Calm -- 30.06 in1017.9 mb - 0.00 in0.0 mm 0.00 in0.0 mm
12:25 AM 79.2°F26.2°C 72.1°F22.3°C 79% Calm Calm -- 30.06 in1017.9 mb - 0.00 in0.0 mm 0.00 in0.0 mm
12:20 AM 79.3°F26.3°C 72.2°F22.3°C 79% Calm Calm -- 30.06 in1017.9 mb - 0.00 in0.0 mm 0.00 in0.0 mm
12:15 AM 79.3°F26.3°C 72.2°F22.3°C 79% Calm Calm -- 30.05 in1017.6 mb - 0.00 in0.0 mm 0.00 in0.0 mm
12:10 AM 79.5°F26.4°C 72.4°F22.4°C 79% Calm Calm -- 30.06 in1017.9 mb - 0.00 in0.0 mm 0.00 in0.0 mm
12:05 AM 79.6°F26.4°C 72.5°F22.5°C 79% Calm Calm -- 30.05 in1017.6 mb - 0.00 in0.0 mm 0.00 in0.0 mm
12:00 AM 79.8°F26.6°C 72.7°F22.6°C 79% Calm Calm -- 30.05 in1017.6 mb - 0.00 in0.0 mm 0.00 in0.0 mm